createdAt,value
2022-08-19T00:01:10.713Z,70.09
2022-08-19T00:06:13.800Z,69.84
2022-08-19T00:11:25.458Z,70.98
2022-08-19T00:16:30.560Z,70.69
2022-08-19T00:21:33.787Z,70.72
2022-08-19T00:26:37.993Z,70.83
2022-08-19T00:31:44.356Z,71.36
2022-08-19T00:36:47.792Z,72.78
2022-08-19T00:41:52.090Z,72.10
2022-08-19T00:46:59.954Z,72.62
2022-08-19T00:52:09.484Z,74.34
2022-08-19T00:57:17.688Z,74.16
2022-08-19T01:02:22.260Z,74.49
2022-08-19T01:07:26.748Z,74.69
2022-08-19T01:12:31.887Z,75.33
2022-08-19T01:17:38.498Z,75.15
2022-08-19T01:22:47.230Z,75.03
2022-08-19T01:27:53.386Z,74.99
2022-08-19T01:32:57.221Z,75.35
2022-08-19T01:38:09.350Z,76.20
2022-08-19T01:43:12.561Z,76.33
2022-08-19T01:48:16.528Z,76.45
2022-08-19T01:53:20.989Z,75.58
2022-08-19T01:58:33.487Z,76.00
2022-08-19T02:03:36.748Z,76.16
2022-08-19T02:08:41.931Z,75.87
2022-08-19T02:13:45.067Z,78.29
2022-08-19T02:18:49.617Z,77.17
2022-08-19T02:23:54.685Z,76.30
2022-08-19T02:28:58.244Z,76.33
2022-08-19T02:34:03.202Z,76.91
2022-08-19T02:39:07.675Z,76.69
2022-08-19T02:44:29.448Z,76.61
2022-08-19T02:49:34.678Z,76.51
2022-08-19T02:54:39.608Z,77.16
2022-08-19T02:59:42.667Z,77.36
2022-08-19T03:04:45.778Z,77.15
2022-08-19T03:09:50.296Z,79.75
2022-08-19T03:14:53.833Z,79.43
2022-08-19T03:19:56.895Z,79.55
2022-08-19T03:25:01.756Z,80.27
2022-08-19T03:30:06.137Z,78.64
2022-08-19T03:35:10.137Z,78.34
2022-08-19T03:40:14.651Z,77.14
2022-08-19T03:45:20.586Z,77.33
2022-08-19T03:50:23.704Z,77.56
2022-08-19T03:55:28.177Z,76.99
2022-08-19T04:00:31.269Z,77.61
2022-08-19T04:05:34.365Z,76.74
2022-08-19T04:10:39.381Z,78.11
2022-08-19T04:15:43.110Z,77.20
2022-08-19T04:20:50.199Z,76.74
2022-08-19T04:25:54.653Z,77.46
2022-08-19T04:30:58.487Z,78.34
2022-08-19T04:36:01.571Z,77.17
2022-08-19T04:41:23.595Z,77.29
2022-08-19T04:46:39.560Z,76.93
2022-08-19T04:51:45.391Z,76.53
2022-08-19T04:56:50.928Z,76.60
2022-08-19T05:01:53.981Z,76.56
2022-08-19T05:07:00.913Z,76.71
2022-08-19T05:12:06.898Z,77.84
2022-08-19T05:22:36.695Z,77.62
2022-08-19T05:27:41.271Z,77.41
2022-08-19T05:32:44.937Z,78.21
2022-08-19T05:37:47.997Z,77.57
2022-08-19T05:42:55.204Z,77.23
2022-08-19T05:47:59.330Z,76.90
2022-08-19T05:53:02.439Z,76.82
2022-08-19T05:58:08.658Z,77.05
2022-08-19T06:03:12.878Z,76.69
2022-08-19T06:08:19.488Z,76.87
2022-08-19T06:13:26.817Z,76.58
2022-08-19T06:18:36.350Z,76.38
2022-08-19T06:23:39.985Z,75.63
2022-08-19T06:28:47.559Z,75.58
2022-08-19T06:33:51.503Z,75.59
2022-08-19T06:38:55.674Z,75.31
2022-08-19T06:44:00.161Z,75.28
2022-08-19T06:49:03.866Z,75.04
2022-08-19T06:54:19.466Z,75.57
2022-08-19T06:59:28.194Z,76.32
2022-08-19T07:04:33.399Z,76.26
2022-08-19T07:09:38.531Z,78.32
2022-08-19T07:14:43.776Z,79.32
2022-08-19T07:19:46.879Z,79.24
2022-08-19T07:24:51.155Z,78.87
2022-08-19T07:29:57.627Z,78.68
2022-08-19T07:35:04.443Z,79.07
2022-08-19T07:40:09.272Z,79.06
2022-08-19T07:45:13.972Z,79.17
2022-08-19T07:50:19.051Z,80.69
2022-08-19T07:55:41.944Z,79.88
2022-08-19T08:00:50.137Z,80.61
2022-08-19T08:06:22.130Z,80.61
2022-08-19T08:11:25.217Z,80.51
2022-08-19T08:16:39.714Z,80.12
2022-08-19T08:21:51.009Z,80.16
2022-08-19T08:26:57.602Z,79.25
2022-08-19T08:32:02.573Z,78.52
2022-08-19T08:37:05.871Z,78.35
2022-08-19T08:42:16.803Z,78.39
2022-08-19T08:47:23.910Z,77.51
2022-08-19T08:52:32.132Z,78.89
2022-08-19T08:57:42.475Z,79.79
2022-08-19T09:02:50.581Z,79.06
2022-08-19T09:08:02.805Z,78.71
2022-08-19T09:13:14.431Z,78.23
2022-08-19T09:18:19.804Z,77.73
2022-08-19T09:23:26.675Z,76.80
2022-08-19T09:28:30.315Z,75.83
2022-08-19T09:33:36.968Z,74.38
2022-08-19T09:38:43.688Z,73.43
2022-08-19T09:43:50.258Z,72.43
2022-08-19T09:48:55.771Z,71.59
2022-08-19T09:54:02.373Z,72.63
2022-08-19T09:59:08.292Z,73.53
2022-08-19T10:04:19.819Z,71.81
2022-08-19T10:09:33.848Z,72.69
2022-08-19T10:14:37.690Z,70.11
2022-08-19T10:19:43.789Z,69.95
2022-08-19T10:24:58.403Z,69.87
2022-08-19T10:30:02.291Z,71.45
2022-08-19T10:35:09.306Z,72.11
2022-08-19T10:40:13.086Z,70.95
2022-08-19T10:45:16.193Z,69.32
2022-08-19T10:50:38.362Z,68.36
2022-08-19T10:55:59.801Z,66.73
2022-08-19T11:01:03.155Z,67.23
2022-08-19T11:06:09.829Z,65.52
2022-08-19T11:11:13.443Z,68.74
2022-08-19T11:16:19.851Z,67.69
2022-08-19T11:21:26.722Z,66.68
2022-08-19T11:26:31.489Z,63.61
2022-08-19T11:31:38.213Z,63.43
2022-08-19T11:36:45.847Z,64.04
2022-08-19T11:41:50.125Z,63.08
2022-08-19T11:46:53.621Z,64.77
2022-08-19T11:51:59.347Z,67.22
2022-08-19T11:57:04.408Z,67.28
2022-08-19T12:02:07.995Z,65.95
2022-08-19T12:07:12.527Z,65.21
2022-08-19T12:12:16.447Z,66.92
2022-08-19T12:17:19.907Z,69.61
2022-08-19T12:22:24.715Z,70.25
2022-08-19T12:27:40.020Z,69.11
2022-08-19T12:32:44.497Z,68.32
2022-08-19T12:37:56.630Z,69.86
2022-08-19T12:43:01.297Z,70.24
2022-08-19T12:48:32.957Z,70.98
2022-08-19T12:53:30.125Z,68.94
2022-08-19T12:58:35.462Z,70.14
2022-08-19T13:03:40.738Z,69.96
2022-08-19T13:08:45.248Z,68.37
2022-08-19T13:13:52.080Z,72.27
2022-08-19T13:18:56.847Z,73.17
2022-08-19T13:24:01.451Z,72.59
2022-08-19T13:29:21.993Z,71.27
2022-08-19T13:34:31.272Z,70.93
2022-08-19T13:39:36.819Z,72.77
2022-08-19T13:44:39.972Z,72.73
2022-08-19T13:49:44.546Z,72.06
2022-08-19T13:54:49.546Z,74.30
2022-08-19T13:59:52.607Z,73.63
2022-08-19T14:04:55.745Z,73.33
2022-08-19T14:10:03.743Z,72.47
2022-08-19T14:15:08.904Z,71.25
2022-08-19T14:20:17.734Z,70.39
2022-08-19T14:25:27.624Z,71.22
2022-08-19T14:30:33.271Z,69.97
2022-08-19T14:35:36.689Z,69.92
2022-08-19T14:40:43.017Z,69.15
2022-08-19T14:45:46.332Z,69.25
2022-08-19T14:50:50.090Z,73.30
2022-08-19T14:55:54.608Z,73.36
2022-08-19T15:00:58.612Z,72.02
2022-08-19T15:06:02.970Z,70.32
2022-08-19T15:11:11.673Z,69.93
2022-08-19T15:16:18.064Z,69.13
2022-08-19T15:21:26.855Z,68.69
2022-08-19T15:26:33.455Z,68.15
2022-08-19T15:31:38.151Z,68.19
2022-08-19T15:36:41.893Z,68.07
2022-08-19T15:41:46.786Z,69.55
2022-08-19T15:46:50.765Z,70.92
2022-08-19T15:51:54.244Z,70.91
2022-08-19T15:57:16.095Z,71.41
2022-08-19T16:02:38.950Z,70.35
2022-08-19T16:07:42.024Z,71.14
2022-08-19T16:12:46.583Z,70.72
2022-08-19T16:17:56.671Z,71.98
2022-08-19T16:23:01.016Z,70.10
2022-08-19T16:28:06.652Z,69.76
2022-08-19T16:33:11.340Z,71.32
2022-08-19T16:38:14.615Z,70.48
2022-08-19T16:43:19.716Z,70.74
2022-08-19T16:48:23.927Z,70.74
2022-08-19T16:53:29.314Z,70.56
2022-08-19T16:58:37.021Z,71.16
2022-08-19T17:03:40.627Z,71.02
2022-08-19T17:08:46.875Z,70.85
2022-08-19T17:13:53.788Z,71.75
2022-08-19T17:18:59.021Z,71.35
2022-08-19T17:24:03.460Z,72.13
2022-08-19T17:29:08.104Z,73.23
2022-08-19T17:34:11.168Z,72.59
2022-08-19T17:39:14.294Z,72.17
2022-08-19T17:44:19.083Z,72.69
2022-08-19T17:49:22.258Z,71.77
2022-08-19T17:54:25.440Z,71.49
2022-08-19T17:59:39.050Z,71.54
2022-08-19T18:04:45.509Z,71.08
2022-08-19T18:09:52.900Z,71.44
2022-08-19T18:14:59.246Z,71.58
2022-08-19T18:20:02.415Z,71.09
2022-08-19T18:25:08.810Z,72.01
2022-08-19T18:30:14.200Z,72.37
2022-08-19T18:35:20.744Z,72.39
2022-08-19T18:40:43.638Z,72.50
2022-08-19T18:46:07.235Z,72.86
2022-08-19T18:51:11.171Z,72.89
2022-08-19T18:56:16.890Z,73.53
2022-08-19T19:01:26.157Z,72.98
2022-08-19T19:06:35.908Z,73.04
2022-08-19T19:11:44.030Z,72.73
2022-08-19T19:16:48.582Z,72.82
2022-08-19T19:21:53.186Z,72.73
2022-08-19T19:26:57.583Z,72.20
2022-08-19T19:32:02.217Z,71.99
2022-08-19T19:37:05.438Z,71.85
2022-08-19T19:42:12.620Z,71.90
2022-08-19T19:47:25.726Z,71.86
2022-08-19T19:52:28.958Z,72.51
2022-08-19T19:57:32.075Z,72.84
2022-08-19T20:02:36.631Z,72.61
2022-08-19T20:07:53.942Z,72.33
2022-08-19T20:12:57.323Z,72.51
2022-08-19T20:18:02.459Z,72.20
2022-08-19T20:23:06.477Z,72.61
2022-08-19T20:28:10.772Z,72.66
2022-08-19T20:33:16.990Z,72.88
2022-08-19T20:38:20.084Z,72.39
2022-08-19T20:43:23.287Z,71.70
2022-08-19T20:48:27.909Z,71.89
2022-08-19T20:53:31.322Z,71.63
2022-08-19T20:58:35.726Z,71.81
2022-08-19T21:03:43.149Z,72.20
2022-08-19T21:08:47.030Z,73.10
2022-08-19T21:13:52.245Z,72.48
2022-08-19T21:18:57.204Z,72.37
2022-08-19T21:24:00.337Z,72.15
2022-08-19T21:29:03.452Z,71.81
2022-08-19T21:34:07.980Z,71.77
2022-08-19T21:39:11.151Z,72.12
2022-08-19T21:44:14.263Z,72.42
2022-08-19T21:49:19.760Z,72.05
2022-08-19T21:54:22.836Z,72.12
2022-08-19T21:59:26.049Z,72.42
2022-08-19T22:04:30.535Z,72.44
2022-08-19T22:09:33.696Z,72.57
2022-08-19T22:14:37.356Z,73.11
2022-08-19T22:19:41.862Z,72.43
2022-08-19T22:24:44.957Z,72.48
2022-08-19T22:29:48.099Z,72.54
2022-08-19T22:34:59.177Z,72.98
2022-08-19T22:40:05.475Z,72.74
2022-08-19T22:45:11.623Z,72.66
2022-08-19T22:50:16.087Z,72.65
2022-08-19T22:55:19.175Z,72.60
2022-08-19T23:00:24.607Z,72.68
2022-08-19T23:05:30.418Z,72.93
2022-08-19T23:10:34.633Z,73.07
2022-08-19T23:15:38.124Z,72.98
2022-08-19T23:20:44.802Z,73.45
2022-08-19T23:25:48.373Z,73.17
2022-08-19T23:30:53.749Z,73.01
2022-08-19T23:36:00.115Z,73.41
2022-08-19T23:41:05.690Z,73.58
2022-08-19T23:46:10.637Z,73.22
2022-08-19T23:51:17.613Z,74.10
2022-08-19T23:56:21.567Z,74.24
